createdAt,value
2023-09-20T00:01:16.060Z,15.60
2023-09-20T00:03:44.603Z,15.60
2023-09-20T00:06:12.218Z,15.50
2023-09-20T00:08:39.456Z,15.50
2023-09-20T00:11:09.794Z,15.40
2023-09-20T00:13:37.430Z,15.30
2023-09-20T00:16:04.747Z,15.40
2023-09-20T00:18:31.737Z,15.30
2023-09-20T00:21:02.565Z,15.30
2023-09-20T00:23:31.066Z,15.30
2023-09-20T00:25:58.602Z,15.30
2023-09-20T00:28:25.665Z,15.20
2023-09-20T00:30:54.365Z,15.20
2023-09-20T00:33:21.585Z,15.30
2023-09-20T00:35:48.510Z,15.40
2023-09-20T00:38:19.317Z,15.30
2023-09-20T00:40:48.467Z,15.30
2023-09-20T00:43:23.957Z,15.40
2023-09-20T00:45:51.611Z,15.30
2023-09-20T00:48:20.320Z,15.30
2023-09-20T00:50:49.288Z,15.40
2023-09-20T00:53:16.548Z,15.30
2023-09-20T00:55:44.033Z,15.30
2023-09-20T00:58:21.070Z,15.30
2023-09-20T01:00:48.705Z,15.30
2023-09-20T01:03:20.702Z,15.30
2023-09-20T01:05:50.883Z,15.30
2023-09-20T01:08:19.265Z,15.30
2023-09-20T01:10:48.055Z,15.30
2023-09-20T01:13:19.991Z,15.30
2023-09-20T01:15:47.668Z,15.30
2023-09-20T01:18:14.714Z,15.30
2023-09-20T01:20:42.154Z,15.30
2023-09-20T01:23:09.493Z,15.30
2023-09-20T01:25:41.190Z,15.20
2023-09-20T01:28:11.434Z,15.30
2023-09-20T01:30:42.606Z,15.20
2023-09-20T01:33:10.190Z,15.20
2023-09-20T01:35:38.460Z,15.20
2023-09-20T01:38:06.292Z,15.10
2023-09-20T01:40:35.070Z,15.20
2023-09-20T01:43:06.931Z,15.10
2023-09-20T01:45:38.137Z,15.10
2023-09-20T01:48:12.045Z,15.00
2023-09-20T01:50:42.911Z,15.00
2023-09-20T01:53:12.302Z,15.00
2023-09-20T01:55:43.800Z,15.00
2023-09-20T01:58:14.019Z,15.00
2023-09-20T02:00:42.144Z,15.00
2023-09-20T02:03:15.322Z,15.00
2023-09-20T02:05:43.163Z,15.00
2023-09-20T02:08:10.210Z,15.00
2023-09-20T02:10:39.112Z,14.90
2023-09-20T02:13:07.504Z,14.90
2023-09-20T02:15:35.937Z,14.90
2023-09-20T02:18:07.406Z,14.80
2023-09-20T02:20:38.034Z,14.80
2023-09-20T02:23:07.848Z,14.80
2023-09-20T02:25:34.948Z,14.70
2023-09-20T02:28:02.583Z,14.70
2023-09-20T02:30:33.003Z,14.70
2023-09-20T02:33:01.307Z,14.80
2023-09-20T02:35:31.053Z,14.70
2023-09-20T02:38:01.129Z,14.70
2023-09-20T02:40:28.490Z,14.70
2023-09-20T02:43:01.054Z,14.70
2023-09-20T02:45:30.494Z,14.70
2023-09-20T02:48:08.665Z,14.70
2023-09-20T02:50:36.314Z,14.70
2023-09-20T02:53:04.964Z,14.70
2023-09-20T02:55:35.010Z,14.60
2023-09-20T02:58:01.903Z,14.60
2023-09-20T03:00:32.527Z,14.60
2023-09-20T03:03:03.203Z,14.50
2023-09-20T03:05:35.829Z,14.50
2023-09-20T03:08:06.164Z,14.50
2023-09-20T03:10:39.676Z,14.50
2023-09-20T03:13:12.065Z,14.50
2023-09-20T03:15:46.067Z,14.40
2023-09-20T03:18:14.755Z,14.40
2023-09-20T03:20:45.678Z,14.30
2023-09-20T03:23:14.441Z,14.30
2023-09-20T03:25:42.105Z,14.30
2023-09-20T03:28:09.707Z,14.30
2023-09-20T03:30:40.842Z,14.30
2023-09-20T03:33:12.554Z,14.30
2023-09-20T03:35:39.804Z,14.30
2023-09-20T03:38:07.127Z,14.30
2023-09-20T03:40:34.108Z,14.20
2023-09-20T03:43:04.425Z,14.20
2023-09-20T03:45:31.424Z,14.30
2023-09-20T03:47:59.271Z,14.30
2023-09-20T03:50:27.198Z,14.20
2023-09-20T03:52:54.616Z,14.20
2023-09-20T03:55:23.904Z,14.20
2023-09-20T03:57:50.866Z,14.20
2023-09-20T04:00:29.759Z,14.20
2023-09-20T04:02:58.345Z,14.20
2023-09-20T04:07:56.120Z,14.10
2023-09-20T04:10:23.066Z,14.10
2023-09-20T04:12:50.000Z,14.00
2023-09-20T04:15:18.327Z,14.10
2023-09-20T04:17:45.680Z,14.00
2023-09-20T04:20:13.617Z,14.00
2023-09-20T04:22:42.396Z,14.00
2023-09-20T04:25:13.727Z,13.90
2023-09-20T04:27:42.472Z,13.90
2023-09-20T04:30:09.882Z,13.90
2023-09-20T04:32:37.492Z,13.90
2023-09-20T04:35:05.859Z,13.80
2023-09-20T04:37:33.002Z,13.90
2023-09-20T04:40:00.256Z,13.90
2023-09-20T04:42:29.085Z,13.90
2023-09-20T04:44:56.025Z,13.90
2023-09-20T04:47:22.977Z,13.90
2023-09-20T04:49:49.926Z,13.90
2023-09-20T04:52:17.030Z,13.90
2023-09-20T04:54:45.899Z,14.00
2023-09-20T04:57:15.605Z,14.00
2023-09-20T04:59:43.328Z,14.00
2023-09-20T05:02:12.100Z,14.00
2023-09-20T05:04:39.790Z,14.00
2023-09-20T05:07:06.850Z,14.00
2023-09-20T05:09:36.557Z,14.00
2023-09-20T05:12:05.077Z,14.00
2023-09-20T05:14:32.400Z,14.10
2023-09-20T05:16:59.410Z,14.10
2023-09-20T05:19:26.724Z,14.10
2023-09-20T05:21:53.983Z,14.20
2023-09-20T05:24:20.851Z,14.20
2023-09-20T05:26:47.880Z,14.30
2023-09-20T05:29:14.801Z,14.40
2023-09-20T05:31:41.826Z,14.40
2023-09-20T05:34:08.716Z,14.50
2023-09-20T05:36:36.730Z,14.60
2023-09-20T05:39:07.376Z,14.70
2023-09-20T05:41:35.422Z,14.70
2023-09-20T05:44:02.622Z,14.90
2023-09-20T05:46:29.588Z,15.10
2023-09-20T05:48:56.466Z,15.30
2023-09-20T05:51:23.412Z,15.30
2023-09-20T05:53:52.831Z,15.40
2023-09-20T05:56:20.952Z,15.50
2023-09-20T05:58:48.395Z,15.80
2023-09-20T06:01:19.375Z,15.90
2023-09-20T06:03:48.025Z,15.90
2023-09-20T06:06:15.681Z,16.10
2023-09-20T06:08:44.148Z,16.20
2023-09-20T06:11:12.098Z,16.20
2023-09-20T06:13:39.790Z,16.30
2023-09-20T06:16:10.496Z,16.40
2023-09-20T06:18:38.361Z,16.60
2023-09-20T06:21:09.950Z,16.70
2023-09-20T06:23:37.237Z,16.80
2023-09-20T06:26:13.607Z,17.00
2023-09-20T06:28:43.585Z,17.10
2023-09-20T06:31:16.987Z,17.20
2023-09-20T06:33:49.881Z,17.30
2023-09-20T06:36:22.063Z,17.20
2023-09-20T06:38:51.239Z,17.20
2023-09-20T06:41:19.248Z,17.20
2023-09-20T06:43:46.234Z,17.30
2023-09-20T06:46:13.334Z,17.40
2023-09-20T06:48:40.353Z,17.60
2023-09-20T06:51:07.547Z,17.70
2023-09-20T06:53:34.568Z,17.70
2023-09-20T06:56:01.746Z,17.80
2023-09-20T06:58:29.741Z,18.00
2023-09-20T07:00:57.368Z,18.10
2023-09-20T07:03:24.828Z,18.20
2023-09-20T07:05:53.191Z,18.20
2023-09-20T07:08:22.765Z,18.40
2023-09-20T07:10:52.021Z,18.50
2023-09-20T07:13:20.832Z,18.60
2023-09-20T07:15:48.127Z,18.90
2023-09-20T07:18:15.758Z,19.00
2023-09-20T07:20:44.997Z,19.00
2023-09-20T07:23:14.981Z,19.00
2023-09-20T07:25:44.077Z,19.00
2023-09-20T07:28:11.145Z,18.90
2023-09-20T07:30:46.585Z,19.00
2023-09-20T07:33:20.371Z,19.10
2023-09-20T07:35:49.562Z,19.20
2023-09-20T07:38:28.996Z,19.20
2023-09-20T07:41:18.737Z,19.20
2023-09-20T07:43:46.564Z,19.30
2023-09-20T07:46:17.870Z,19.30
2023-09-20T07:48:53.893Z,19.30
2023-09-20T07:51:21.877Z,19.30
2023-09-20T07:53:56.176Z,19.40
2023-09-20T07:56:23.972Z,19.40
2023-09-20T07:58:53.171Z,19.50
2023-09-20T08:01:21.436Z,19.70
2023-09-20T08:03:54.219Z,19.70
2023-09-20T08:06:24.997Z,19.70
2023-09-20T08:08:52.232Z,19.80
2023-09-20T08:11:21.750Z,19.90
2023-09-20T08:13:57.494Z,19.80
2023-09-20T08:16:37.918Z,19.80
2023-09-20T08:19:16.532Z,19.90
2023-09-20T08:21:44.989Z,19.90
2023-09-20T08:24:30.705Z,19.90
2023-09-20T08:27:16.268Z,20.00
2023-09-20T08:30:01.844Z,20.10
2023-09-20T08:32:47.576Z,20.10
2023-09-20T08:35:51.828Z,20.10
2023-09-20T08:38:37.417Z,20.10
2023-09-20T08:41:23.033Z,20.10
2023-09-20T08:44:08.546Z,20.00
2023-09-20T08:46:58.316Z,20.10
2023-09-20T08:49:50.288Z,20.00
2023-09-20T08:52:40.424Z,20.10
2023-09-20T08:55:28.121Z,20.10
2023-09-20T08:58:15.505Z,20.20
2023-09-20T09:00:47.757Z,20.10
2023-09-20T09:03:17.209Z,20.10
2023-09-20T09:05:44.406Z,20.00
2023-09-20T09:08:11.820Z,20.00
2023-09-20T09:10:38.758Z,20.00
2023-09-20T09:13:05.933Z,19.80
2023-09-20T09:15:32.905Z,19.80
2023-09-20T09:17:59.902Z,19.80
2023-09-20T09:20:30.937Z,19.80
2023-09-20T09:22:58.254Z,19.80
2023-09-20T09:25:33.025Z,19.90
2023-09-20T09:28:01.190Z,20.10
2023-09-20T09:30:28.609Z,20.10
2023-09-20T09:32:55.835Z,20.20
2023-09-20T09:35:40.064Z,20.20
2023-09-20T09:38:13.682Z,20.20
2023-09-20T09:40:58.430Z,20.20
2023-09-20T09:43:30.898Z,20.30
2023-09-20T09:46:11.240Z,20.30
2023-09-20T09:48:39.260Z,20.40
2023-09-20T09:51:08.023Z,20.40
2023-09-20T09:53:38.233Z,20.50
2023-09-20T09:56:07.504Z,20.50
2023-09-20T09:58:35.233Z,20.50
2023-09-20T10:01:07.354Z,20.40
2023-09-20T10:03:41.986Z,20.50
2023-09-20T10:06:23.521Z,20.50
2023-09-20T10:08:55.818Z,20.60
2023-09-20T10:11:25.318Z,20.70
2023-09-20T10:13:55.041Z,20.90
2023-09-20T10:16:23.601Z,21.10
2023-09-20T10:18:56.882Z,21.30
2023-09-20T10:21:27.976Z,21.40
2023-09-20T10:24:02.057Z,21.60
2023-09-20T10:26:30.540Z,21.70
2023-09-20T10:29:26.097Z,21.80
2023-09-20T10:32:09.766Z,22.00
2023-09-20T10:34:38.966Z,22.20
2023-09-20T10:37:11.996Z,22.30
2023-09-20T10:39:47.933Z,22.40
2023-09-20T10:42:18.091Z,22.60
2023-09-20T10:44:45.332Z,22.50
2023-09-20T10:47:16.351Z,22.60
2023-09-20T10:49:56.624Z,22.70
2023-09-20T10:52:33.805Z,22.80
2023-09-20T10:55:24.417Z,22.70
2023-09-20T10:57:53.083Z,22.80
2023-09-20T11:00:26.420Z,23.00
2023-09-20T11:02:53.986Z,23.00
2023-09-20T11:05:22.620Z,23.10
2023-09-20T11:07:51.880Z,22.90
2023-09-20T11:10:20.462Z,22.80
2023-09-20T11:12:47.893Z,22.90
2023-09-20T11:15:15.698Z,22.90
2023-09-20T11:17:43.302Z,22.80
2023-09-20T11:20:13.123Z,22.90
2023-09-20T11:22:40.393Z,23.10
2023-09-20T11:25:08.291Z,23.10
2023-09-20T11:27:36.487Z,23.30
2023-09-20T11:30:09.968Z,23.20
2023-09-20T11:32:40.675Z,23.10
2023-09-20T11:35:09.049Z,23.30
2023-09-20T11:37:36.831Z,23.40
2023-09-20T11:40:06.066Z,23.40
2023-09-20T11:42:36.015Z,23.30
2023-09-20T11:47:44.056Z,23.70
2023-09-20T11:50:16.040Z,23.70
2023-09-20T11:52:50.638Z,23.90
2023-09-20T11:55:20.732Z,23.90
2023-09-20T11:57:49.012Z,23.90
2023-09-20T12:00:21.289Z,23.80
2023-09-20T12:02:49.401Z,23.50
2023-09-20T12:05:23.082Z,23.60
2023-09-20T12:07:57.926Z,23.50
2023-09-20T12:10:31.144Z,23.40
2023-09-20T12:12:59.086Z,23.30
2023-09-20T12:15:26.480Z,23.40
2023-09-20T12:17:58.589Z,23.30
2023-09-20T12:20:27.514Z,23.30
2023-09-20T12:22:57.063Z,23.30
2023-09-20T12:25:24.061Z,23.40
2023-09-20T12:27:51.147Z,23.40
2023-09-20T12:30:19.165Z,23.30
2023-09-20T12:32:47.676Z,23.40
2023-09-20T12:35:14.976Z,23.50
2023-09-20T12:37:42.065Z,23.70
2023-09-20T12:40:10.084Z,23.80
2023-09-20T12:42:38.707Z,23.90
2023-09-20T12:45:10.352Z,24.00
2023-09-20T12:47:41.794Z,24.00
2023-09-20T12:50:14.486Z,24.10
2023-09-20T12:52:46.154Z,24.10
2023-09-20T12:55:15.046Z,24.10
2023-09-20T12:57:48.349Z,24.10
2023-09-20T13:00:23.534Z,24.00
2023-09-20T13:02:58.714Z,24.00
2023-09-20T13:05:26.634Z,24.20
2023-09-20T13:07:53.623Z,24.20
2023-09-20T13:10:20.893Z,24.10
2023-09-20T13:12:49.271Z,24.00
2023-09-20T13:15:18.848Z,24.10
2023-09-20T13:17:49.373Z,24.10
2023-09-20T13:20:16.978Z,24.20
2023-09-20T13:22:44.307Z,24.10
2023-09-20T13:25:17.094Z,24.10
2023-09-20T13:27:45.023Z,24.20
2023-09-20T13:30:13.411Z,24.30
2023-09-20T13:32:41.629Z,24.20
2023-09-20T13:35:12.295Z,24.20
2023-09-20T13:37:46.300Z,24.10
2023-09-20T13:40:16.600Z,24.20
2023-09-20T13:42:45.733Z,24.30
2023-09-20T13:45:15.494Z,24.20
2023-09-20T13:47:43.476Z,24.10
2023-09-20T13:50:17.449Z,24.10
2023-09-20T13:52:45.410Z,24.20
2023-09-20T13:55:25.885Z,24.30
2023-09-20T13:58:00.171Z,24.30
2023-09-20T14:00:30.001Z,24.30
2023-09-20T14:02:58.623Z,24.40
2023-09-20T14:05:27.872Z,24.30
2023-09-20T14:07:58.966Z,24.40
2023-09-20T14:10:36.474Z,24.30
2023-09-20T14:13:03.587Z,24.20
2023-09-20T14:15:31.140Z,24.10
2023-09-20T14:18:00.064Z,24.10
2023-09-20T14:20:29.200Z,24.10
2023-09-20T14:22:56.946Z,24.20
2023-09-20T14:25:25.872Z,24.10
2023-09-20T14:27:55.236Z,24.10
2023-09-20T14:30:22.408Z,24.20
2023-09-20T14:32:57.037Z,24.20
2023-09-20T14:35:25.346Z,24.30
2023-09-20T14:37:55.351Z,24.20
2023-09-20T14:40:25.615Z,24.10
2023-09-20T14:42:56.651Z,24.20
2023-09-20T14:45:32.169Z,24.20
2023-09-20T14:48:02.424Z,24.20
2023-09-20T14:50:31.149Z,24.10
2023-09-20T14:52:58.407Z,24.00
2023-09-20T14:55:27.879Z,24.10
2023-09-20T14:57:57.308Z,24.10
2023-09-20T15:00:26.459Z,24.00
2023-09-20T15:02:56.737Z,24.00
2023-09-20T15:05:26.060Z,24.00
2023-09-20T15:07:55.592Z,24.10
2023-09-20T15:10:26.025Z,24.10
2023-09-20T15:13:02.561Z,24.20
2023-09-20T15:15:32.067Z,24.10
2023-09-20T15:18:00.155Z,23.90
2023-09-20T15:20:29.854Z,24.00
2023-09-20T15:22:58.231Z,23.90
2023-09-20T15:25:26.492Z,23.80
2023-09-20T15:27:56.407Z,23.80
2023-09-20T15:30:24.516Z,23.60
2023-09-20T15:32:52.415Z,23.60
2023-09-20T15:35:19.939Z,23.50
2023-09-20T15:37:49.091Z,23.50
2023-09-20T15:40:18.418Z,23.50
2023-09-20T15:42:48.510Z,23.50
2023-09-20T15:45:20.348Z,23.40
2023-09-20T15:47:48.404Z,23.40
2023-09-20T15:50:16.221Z,23.30
2023-09-20T15:52:43.374Z,23.20
2023-09-20T15:55:16.193Z,23.10
2023-09-20T15:57:44.445Z,23.10
2023-09-20T16:00:15.030Z,23.00
2023-09-20T16:02:43.686Z,23.00
2023-09-20T16:05:11.488Z,23.00
2023-09-20T16:07:41.496Z,23.00
2023-09-20T16:10:15.278Z,22.90
2023-09-20T16:12:46.628Z,22.90
2023-09-20T16:15:16.882Z,22.90
2023-09-20T16:17:44.424Z,22.80
2023-09-20T16:20:12.408Z,22.80
2023-09-20T16:22:39.342Z,22.70
2023-09-20T16:25:08.006Z,22.70
2023-09-20T16:27:35.327Z,22.70
2023-09-20T16:30:03.008Z,22.70
2023-09-20T16:32:30.149Z,22.70
2023-09-20T16:34:57.118Z,22.60
2023-09-20T16:37:24.241Z,22.60
2023-09-20T16:39:51.349Z,22.50
2023-09-20T16:42:18.371Z,22.50
2023-09-20T16:44:45.455Z,22.50
2023-09-20T16:47:13.619Z,22.40
2023-09-20T16:49:40.608Z,22.30
2023-09-20T16:52:08.169Z,22.30
2023-09-20T16:54:35.407Z,22.20
2023-09-20T16:57:02.359Z,22.20
2023-09-20T16:59:30.598Z,22.10
2023-09-20T17:01:57.994Z,22.20
2023-09-20T17:04:27.150Z,22.20
2023-09-20T17:06:54.180Z,22.20
2023-09-20T17:09:24.270Z,22.20
2023-09-20T17:11:51.757Z,22.20
2023-09-20T17:14:19.364Z,22.30
2023-09-20T17:16:46.369Z,22.30
2023-09-20T17:19:13.452Z,22.30
2023-09-20T17:21:41.752Z,22.20
2023-09-20T17:24:10.751Z,22.20
2023-09-20T17:26:39.021Z,22.20
2023-09-20T17:29:06.408Z,22.10
2023-09-20T17:31:33.899Z,22.10
2023-09-20T17:34:01.065Z,22.10
2023-09-20T17:36:28.064Z,22.00
2023-09-20T17:38:55.053Z,22.10
2023-09-20T17:41:23.640Z,22.10
2023-09-20T17:43:54.510Z,22.10
2023-09-20T17:46:21.688Z,22.20
2023-09-20T17:48:48.795Z,22.20
2023-09-20T17:51:15.759Z,22.20
2023-09-20T17:53:43.036Z,22.30
2023-09-20T17:56:10.416Z,22.30
2023-09-20T17:58:37.320Z,22.30
2023-09-20T18:01:06.119Z,22.30
2023-09-20T18:03:35.664Z,22.20
2023-09-20T18:06:04.060Z,22.20
2023-09-20T18:08:31.582Z,22.10
2023-09-20T18:10:58.598Z,22.00
2023-09-20T18:13:29.257Z,21.90
2023-09-20T18:15:56.152Z,21.90
2023-09-20T18:18:23.450Z,21.90
2023-09-20T18:20:56.896Z,21.90
2023-09-20T18:23:28.140Z,21.80
2023-09-20T18:25:58.046Z,21.80
2023-09-20T18:28:28.772Z,21.70
2023-09-20T18:30:55.874Z,21.80
2023-09-20T18:33:22.980Z,21.80
2023-09-20T18:35:50.928Z,21.80
2023-09-20T18:38:18.471Z,21.80
2023-09-20T18:40:46.068Z,21.80
2023-09-20T18:43:15.280Z,21.70
2023-09-20T18:45:44.230Z,21.80
2023-09-20T18:48:11.961Z,21.70
2023-09-20T18:50:53.482Z,21.70
2023-09-20T18:53:25.451Z,21.70
2023-09-20T18:55:56.828Z,21.70
2023-09-20T18:58:26.949Z,21.70
2023-09-20T19:00:54.046Z,21.60
2023-09-20T19:03:28.446Z,21.60
2023-09-20T19:05:56.140Z,21.50
2023-09-20T19:08:23.154Z,21.50
2023-09-20T19:10:50.163Z,21.40
2023-09-20T19:13:17.104Z,21.30
2023-09-20T19:15:43.998Z,21.30
2023-09-20T19:18:12.968Z,21.30
2023-09-20T19:20:40.280Z,21.30
2023-09-20T19:23:08.019Z,21.30
2023-09-20T19:25:35.835Z,21.30
2023-09-20T19:28:03.027Z,21.20
2023-09-20T19:30:34.453Z,21.20
2023-09-20T19:33:06.487Z,21.20
2023-09-20T19:35:36.331Z,21.20
2023-09-20T19:38:03.773Z,21.20
2023-09-20T19:40:32.171Z,21.10
2023-09-20T19:42:59.392Z,21.10
2023-09-20T19:45:27.833Z,21.00
2023-09-20T19:47:56.002Z,20.90
2023-09-20T19:50:23.822Z,20.90
2023-09-20T19:52:53.793Z,20.90
2023-09-20T19:55:28.240Z,20.80
2023-09-20T19:57:57.905Z,20.80
2023-09-20T20:00:26.629Z,20.70
2023-09-20T20:03:01.724Z,20.60
2023-09-20T20:05:29.125Z,20.60
2023-09-20T20:08:00.120Z,20.60
2023-09-20T20:10:28.796Z,20.60
2023-09-20T20:13:00.635Z,20.60
2023-09-20T20:15:31.456Z,20.50
2023-09-20T20:17:59.457Z,20.50
2023-09-20T20:20:30.568Z,20.50
2023-09-20T20:23:00.109Z,20.40
2023-09-20T20:25:35.550Z,20.50
2023-09-20T20:28:13.185Z,20.50
2023-09-20T20:30:41.512Z,20.50
2023-09-20T20:33:09.458Z,20.50
2023-09-20T20:35:36.759Z,20.50
2023-09-20T20:38:04.209Z,20.50
2023-09-20T20:40:31.532Z,20.50
2023-09-20T20:42:59.393Z,20.50
2023-09-20T20:45:27.264Z,20.50
2023-09-20T20:47:55.360Z,20.50
2023-09-20T20:50:30.048Z,20.40
2023-09-20T20:53:00.107Z,20.30
2023-09-20T20:55:29.681Z,20.30
2023-09-20T20:58:10.651Z,20.30
2023-09-20T21:00:39.713Z,20.20
2023-09-20T21:03:11.153Z,20.20
2023-09-20T21:05:38.671Z,20.10
2023-09-20T21:08:06.347Z,20.10
2023-09-20T21:10:38.707Z,20.10
2023-09-20T21:13:13.658Z,20.00
2023-09-20T21:15:47.904Z,20.00
2023-09-20T21:18:20.019Z,19.90
2023-09-20T21:20:50.531Z,19.90
2023-09-20T21:23:18.715Z,19.80
2023-09-20T21:25:47.111Z,19.80
2023-09-20T21:28:14.551Z,19.70
2023-09-20T21:30:41.745Z,19.70
2023-09-20T21:33:10.315Z,19.70
2023-09-20T21:35:38.367Z,19.60
2023-09-20T21:38:08.802Z,19.60
2023-09-20T21:40:39.610Z,19.50
2023-09-20T21:43:10.120Z,19.50
2023-09-20T21:45:38.885Z,19.50
2023-09-20T21:48:07.570Z,19.50
2023-09-20T21:50:36.027Z,19.40
2023-09-20T21:53:05.125Z,19.50
2023-09-20T21:55:34.624Z,19.40
2023-09-20T21:58:01.761Z,19.50
2023-09-20T22:00:28.744Z,19.40
2023-09-20T22:03:02.193Z,19.40
2023-09-20T22:05:29.769Z,19.40
2023-09-20T22:07:59.204Z,19.30
2023-09-20T22:10:27.324Z,19.30
2023-09-20T22:12:56.370Z,19.30
2023-09-20T22:15:27.816Z,19.30
2023-09-20T22:18:00.320Z,19.30
2023-09-20T22:20:33.475Z,19.30
2023-09-20T22:23:09.047Z,19.30
2023-09-20T22:25:36.035Z,19.20
2023-09-20T22:28:03.152Z,19.20
2023-09-20T22:30:30.060Z,19.20
2023-09-20T22:32:58.910Z,19.10
2023-09-20T22:35:26.172Z,19.00
2023-09-20T22:37:59.116Z,19.00
2023-09-20T22:40:26.037Z,19.00
2023-09-20T22:42:53.614Z,18.90
2023-09-20T22:45:23.555Z,18.80
2023-09-20T22:47:59.229Z,18.70
2023-09-20T22:50:29.892Z,18.70
2023-09-20T22:53:06.822Z,18.60
2023-09-20T22:55:40.364Z,18.60
2023-09-20T22:58:14.527Z,18.60
2023-09-20T23:00:47.612Z,18.60
2023-09-20T23:03:26.122Z,18.50
2023-09-20T23:05:53.935Z,18.40
2023-09-20T23:08:21.095Z,18.40
2023-09-20T23:10:53.232Z,18.40
2023-09-20T23:13:22.879Z,18.50
2023-09-20T23:15:55.276Z,18.50
2023-09-20T23:18:25.795Z,18.50
2023-09-20T23:20:55.650Z,18.40
2023-09-20T23:23:25.890Z,18.40
2023-09-20T23:25:55.225Z,18.40
2023-09-20T23:28:24.464Z,18.30
2023-09-20T23:30:58.904Z,18.40
2023-09-20T23:33:29.186Z,18.30
2023-09-20T23:35:58.683Z,18.20
2023-09-20T23:38:31.273Z,18.20
2023-09-20T23:41:15.502Z,18.20
2023-09-20T23:43:47.420Z,18.20
2023-09-20T23:46:21.100Z,18.10
2023-09-20T23:48:50.381Z,18.10
2023-09-20T23:51:17.685Z,18.10
2023-09-20T23:53:44.703Z,18.00
2023-09-20T23:56:18.446Z,18.00
2023-09-20T23:58:46.577Z,18.00
